sensor_id;sensor_type;location;lat;lon;timestamp;temperature;humidity
3053;DHT22;1536;51.098;6.414;2022-10-31T00:01:19;16.90;99.90
3053;DHT22;1536;51.098;6.414;2022-10-31T00:03:45;16.90;99.90
3053;DHT22;1536;51.098;6.414;2022-10-31T00:06:13;16.90;99.90
3053;DHT22;1536;51.098;6.414;2022-10-31T00:08:39;16.90;99.90
3053;DHT22;1536;51.098;6.414;2022-10-31T00:11:08;16.90;99.90
3053;DHT22;1536;51.098;6.414;2022-10-31T00:13:35;16.90;99.90
3053;DHT22;1536;51.098;6.414;2022-10-31T00:16:03;16.90;99.90
3053;DHT22;1536;51.098;6.414;2022-10-31T00:18:30;16.80;99.90
3053;DHT22;1536;51.098;6.414;2022-10-31T00:21:00;16.80;99.90
3053;DHT22;1536;51.098;6.414;2022-10-31T00:23:27;16.80;99.90
3053;DHT22;1536;51.098;6.414;2022-10-31T00:25:54;16.80;99.90
3053;DHT22;1536;51.098;6.414;2022-10-31T00:28:20;16.80;99.90
3053;DHT22;1536;51.098;6.414;2022-10-31T00:30:47;16.80;99.90
3053;DHT22;1536;51.098;6.414;2022-10-31T00:33:15;16.80;99.90
3053;DHT22;1536;51.098;6.414;2022-10-31T00:35:42;16.80;99.90
3053;DHT22;1536;51.098;6.414;2022-10-31T00:38:09;16.80;99.90
3053;DHT22;1536;51.098;6.414;2022-10-31T00:40:35;16.80;99.90
3053;DHT22;1536;51.098;6.414;2022-10-31T00:43:02;16.80;99.90
3053;DHT22;1536;51.098;6.414;2022-10-31T00:45:29;16.80;99.90
3053;DHT22;1536;51.098;6.414;2022-10-31T00:47:55;16.80;99.90
3053;DHT22;1536;51.098;6.414;2022-10-31T00:50:23;16.80;99.90
3053;DHT22;1536;51.098;6.414;2022-10-31T00:52:50;16.80;99.90
3053;DHT22;1536;51.098;6.414;2022-10-31T00:55:17;16.80;99.90
3053;DHT22;1536;51.098;6.414;2022-10-31T00:57:46;16.90;99.90
3053;DHT22;1536;51.098;6.414;2022-10-31T01:00:13;16.90;99.90
3053;DHT22;1536;51.098;6.414;2022-10-31T01:02:39;16.90;99.90
3053;DHT22;1536;51.098;6.414;2022-10-31T01:05:07;16.90;99.90
3053;DHT22;1536;51.098;6.414;2022-10-31T01:07:38;17.00;99.90
3053;DHT22;1536;51.098;6.414;2022-10-31T01:10:06;17.00;99.90
3053;DHT22;1536;51.098;6.414;2022-10-31T01:12:36;17.00;99.90
3053;DHT22;1536;51.098;6.414;2022-10-31T01:15:04;17.00;99.90
3053;DHT22;1536;51.098;6.414;2022-10-31T01:17:31;17.00;99.90
3053;DHT22;1536;51.098;6.414;2022-10-31T01:19:58;17.00;99.90
3053;DHT22;1536;51.098;6.414;2022-10-31T01:22:24;17.00;99.90
3053;DHT22;1536;51.098;6.414;2022-10-31T01:24:52;17.00;99.90
3053;DHT22;1536;51.098;6.414;2022-10-31T01:27:19;17.00;99.90
3053;DHT22;1536;51.098;6.414;2022-10-31T01:29:46;16.90;99.90
3053;DHT22;1536;51.098;6.414;2022-10-31T01:32:12;16.90;99.90
3053;DHT22;1536;51.098;6.414;2022-10-31T01:34:39;16.90;99.90
3053;DHT22;1536;51.098;6.414;2022-10-31T01:37:06;16.80;99.90
3053;DHT22;1536;51.098;6.414;2022-10-31T01:39:33;16.80;99.90
3053;DHT22;1536;51.098;6.414;2022-10-31T01:42:01;16.70;99.90
3053;DHT22;1536;51.098;6.414;2022-10-31T01:44:59;16.70;99.90
3053;DHT22;1536;51.098;6.414;2022-10-31T01:47:41;16.70;99.90
3053;DHT22;1536;51.098;6.414;2022-10-31T01:50:22;16.70;99.90
3053;DHT22;1536;51.098;6.414;2022-10-31T01:52:51;16.60;99.90
3053;DHT22;1536;51.098;6.414;2022-10-31T01:55:20;16.60;99.90
3053;DHT22;1536;51.098;6.414;2022-10-31T01:57:52;16.50;99.90
3053;DHT22;1536;51.098;6.414;2022-10-31T02:00:21;16.40;99.90
3053;DHT22;1536;51.098;6.414;2022-10-31T02:02:49;16.40;99.90
3053;DHT22;1536;51.098;6.414;2022-10-31T02:05:19;16.40;99.90
3053;DHT22;1536;51.098;6.414;2022-10-31T02:07:53;16.30;99.90
3053;DHT22;1536;51.098;6.414;2022-10-31T02:10:22;16.30;99.90
3053;DHT22;1536;51.098;6.414;2022-10-31T02:12:50;16.30;99.90
3053;DHT22;1536;51.098;6.414;2022-10-31T02:15:17;16.20;99.90
3053;DHT22;1536;51.098;6.414;2022-10-31T02:17:44;16.20;99.90
3053;DHT22;1536;51.098;6.414;2022-10-31T02:20:15;16.20;99.90
3053;DHT22;1536;51.098;6.414;2022-10-31T02:25:49;16.20;99.90
3053;DHT22;1536;51.098;6.414;2022-10-31T02:28:30;16.20;99.90
3053;DHT22;1536;51.098;6.414;2022-10-31T02:31:19;16.20;99.90
3053;DHT22;1536;51.098;6.414;2022-10-31T02:33:51;16.20;99.90
3053;DHT22;1536;51.098;6.414;2022-10-31T02:36:25;16.20;99.90
3053;DHT22;1536;51.098;6.414;2022-10-31T02:39:02;16.20;99.90
3053;DHT22;1536;51.098;6.414;2022-10-31T02:41:36;16.20;99.90
3053;DHT22;1536;51.098;6.414;2022-10-31T02:44:09;16.10;99.90
3053;DHT22;1536;51.098;6.414;2022-10-31T02:46:44;16.10;99.90
3053;DHT22;1536;51.098;6.414;2022-10-31T02:49:21;16.10;99.90
3053;DHT22;1536;51.098;6.414;2022-10-31T02:51:50;16.10;99.90
3053;DHT22;1536;51.098;6.414;2022-10-31T02:54:22;16.10;99.90
3053;DHT22;1536;51.098;6.414;2022-10-31T02:56:51;16.00;99.90
3053;DHT22;1536;51.098;6.414;2022-10-31T02:59:19;16.00;99.90
3053;DHT22;1536;51.098;6.414;2022-10-31T03:01:59;16.00;99.90
3053;DHT22;1536;51.098;6.414;2022-10-31T03:04:48;16.00;99.90
3053;DHT22;1536;51.098;6.414;2022-10-31T03:07:25;15.90;99.90
3053;DHT22;1536;51.098;6.414;2022-10-31T03:10:02;15.90;99.90
3053;DHT22;1536;51.098;6.414;2022-10-31T03:12:34;15.90;99.90
3053;DHT22;1536;51.098;6.414;2022-10-31T03:15:12;15.90;99.90
3053;DHT22;1536;51.098;6.414;2022-10-31T03:17:50;15.90;99.90
3053;DHT22;1536;51.098;6.414;2022-10-31T03:20:23;16.00;99.90
3053;DHT22;1536;51.098;6.414;2022-10-31T03:22:51;15.90;99.90
3053;DHT22;1536;51.098;6.414;2022-10-31T03:25:18;15.90;99.90
3053;DHT22;1536;51.098;6.414;2022-10-31T03:27:46;15.90;99.90
3053;DHT22;1536;51.098;6.414;2022-10-31T03:30:14;15.90;99.90
3053;DHT22;1536;51.098;6.414;2022-10-31T03:32:45;15.90;99.90
3053;DHT22;1536;51.098;6.414;2022-10-31T03:35:15;15.90;99.90
3053;DHT22;1536;51.098;6.414;2022-10-31T03:37:44;15.90;99.90
3053;DHT22;1536;51.098;6.414;2022-10-31T03:40:14;15.90;99.90
3053;DHT22;1536;51.098;6.414;2022-10-31T03:42:45;15.90;99.90
3053;DHT22;1536;51.098;6.414;2022-10-31T03:45:16;15.90;99.90
3053;DHT22;1536;51.098;6.414;2022-10-31T03:47:48;15.90;99.90
3053;DHT22;1536;51.098;6.414;2022-10-31T03:50:15;15.90;99.90
3053;DHT22;1536;51.098;6.414;2022-10-31T03:52:45;15.90;99.90
3053;DHT22;1536;51.098;6.414;2022-10-31T03:55:17;15.80;99.90
3053;DHT22;1536;51.098;6.414;2022-10-31T03:57:51;15.80;99.90
3053;DHT22;1536;51.098;6.414;2022-10-31T04:00:19;15.80;99.90
3053;DHT22;1536;51.098;6.414;2022-10-31T04:02:53;15.70;99.90
3053;DHT22;1536;51.098;6.414;2022-10-31T04:05:21;15.80;99.90
3053;DHT22;1536;51.098;6.414;2022-10-31T04:07:51;15.80;99.90
3053;DHT22;1536;51.098;6.414;2022-10-31T04:10:21;15.80;99.90
3053;DHT22;1536;51.098;6.414;2022-10-31T04:12:52;15.80;99.90
3053;DHT22;1536;51.098;6.414;2022-10-31T04:15:21;15.80;99.90
3053;DHT22;1536;51.098;6.414;2022-10-31T04:17:52;15.80;99.90
3053;DHT22;1536;51.098;6.414;2022-10-31T04:20:29;15.80;99.90
3053;DHT22;1536;51.098;6.414;2022-10-31T04:22:56;15.70;99.90
3053;DHT22;1536;51.098;6.414;2022-10-31T04:25:23;15.60;99.90
3053;DHT22;1536;51.098;6.414;2022-10-31T04:27:50;15.60;99.90
3053;DHT22;1536;51.098;6.414;2022-10-31T04:30:16;15.60;99.90
3053;DHT22;1536;51.098;6.414;2022-10-31T04:32:43;15.60;99.90
3053;DHT22;1536;51.098;6.414;2022-10-31T04:35:11;15.60;99.90
3053;DHT22;1536;51.098;6.414;2022-10-31T04:37:38;15.60;99.90
3053;DHT22;1536;51.098;6.414;2022-10-31T04:40:05;15.60;99.90
3053;DHT22;1536;51.098;6.414;2022-10-31T04:42:32;15.60;99.90
3053;DHT22;1536;51.098;6.414;2022-10-31T04:44:59;15.60;99.90
3053;DHT22;1536;51.098;6.414;2022-10-31T04:47:25;15.60;99.90
3053;DHT22;1536;51.098;6.414;2022-10-31T04:49:52;15.60;99.90
3053;DHT22;1536;51.098;6.414;2022-10-31T04:52:20;15.60;99.90
3053;DHT22;1536;51.098;6.414;2022-10-31T04:54:47;15.60;99.90
3053;DHT22;1536;51.098;6.414;2022-10-31T04:57:13;15.60;99.90
3053;DHT22;1536;51.098;6.414;2022-10-31T04:59:40;15.60;99.90
3053;DHT22;1536;51.098;6.414;2022-10-31T05:02:07;15.50;99.90
3053;DHT22;1536;51.098;6.414;2022-10-31T05:04:33;15.50;99.90
3053;DHT22;1536;51.098;6.414;2022-10-31T05:07:00;15.50;99.90
3053;DHT22;1536;51.098;6.414;2022-10-31T05:09:28;15.50;99.90
3053;DHT22;1536;51.098;6.414;2022-10-31T05:11:55;15.50;99.90
3053;DHT22;1536;51.098;6.414;2022-10-31T05:14:21;15.50;99.90
3053;DHT22;1536;51.098;6.414;2022-10-31T05:16:48;15.50;99.90
3053;DHT22;1536;51.098;6.414;2022-10-31T05:19:15;15.50;99.90
3053;DHT22;1536;51.098;6.414;2022-10-31T05:21:42;15.50;99.90
3053;DHT22;1536;51.098;6.414;2022-10-31T05:24:09;15.50;99.90
3053;DHT22;1536;51.098;6.414;2022-10-31T05:26:37;15.50;99.90
3053;DHT22;1536;51.098;6.414;2022-10-31T05:29:03;15.40;99.90
3053;DHT22;1536;51.098;6.414;2022-10-31T05:31:30;15.40;99.90
3053;DHT22;1536;51.098;6.414;2022-10-31T05:33:57;15.30;99.90
3053;DHT22;1536;51.098;6.414;2022-10-31T05:36:24;15.30;99.90
3053;DHT22;1536;51.098;6.414;2022-10-31T05:38:50;15.30;99.90
3053;DHT22;1536;51.098;6.414;2022-10-31T05:41:17;15.20;99.90
3053;DHT22;1536;51.098;6.414;2022-10-31T05:43:46;15.20;99.90
3053;DHT22;1536;51.098;6.414;2022-10-31T05:46:13;15.20;99.90
3053;DHT22;1536;51.098;6.414;2022-10-31T05:48:39;15.20;99.90
3053;DHT22;1536;51.098;6.414;2022-10-31T05:51:06;15.30;99.90
3053;DHT22;1536;51.098;6.414;2022-10-31T05:53:33;15.30;99.90
3053;DHT22;1536;51.098;6.414;2022-10-31T05:55:59;15.30;99.90
3053;DHT22;1536;51.098;6.414;2022-10-31T05:58:26;15.30;99.90
3053;DHT22;1536;51.098;6.414;2022-10-31T06:00:54;15.30;99.90
3053;DHT22;1536;51.098;6.414;2022-10-31T06:03:21;15.30;99.90
3053;DHT22;1536;51.098;6.414;2022-10-31T06:05:47;15.30;99.90
3053;DHT22;1536;51.098;6.414;2022-10-31T06:08:14;15.30;99.90
3053;DHT22;1536;51.098;6.414;2022-10-31T06:10:40;15.20;99.90
3053;DHT22;1536;51.098;6.414;2022-10-31T06:13:07;15.20;99.90
3053;DHT22;1536;51.098;6.414;2022-10-31T06:15:34;15.20;99.90
3053;DHT22;1536;51.098;6.414;2022-10-31T06:18:03;15.20;99.90
3053;DHT22;1536;51.098;6.414;2022-10-31T06:20:31;15.20;99.90
3053;DHT22;1536;51.098;6.414;2022-10-31T06:22:58;15.20;99.90
3053;DHT22;1536;51.098;6.414;2022-10-31T06:25:25;15.20;99.90
3053;DHT22;1536;51.098;6.414;2022-10-31T06:27:51;15.20;99.90
3053;DHT22;1536;51.098;6.414;2022-10-31T06:30:18;15.20;99.90
3053;DHT22;1536;51.098;6.414;2022-10-31T06:32:45;15.10;99.90
3053;DHT22;1536;51.098;6.414;2022-10-31T06:35:13;15.10;99.90
3053;DHT22;1536;51.098;6.414;2022-10-31T06:37:40;15.10;99.90
3053;DHT22;1536;51.098;6.414;2022-10-31T06:40:07;15.10;99.90
3053;DHT22;1536;51.098;6.414;2022-10-31T06:42:34;15.10;99.90
3053;DHT22;1536;51.098;6.414;2022-10-31T06:45:01;15.10;99.90
3053;DHT22;1536;51.098;6.414;2022-10-31T06:47:27;15.10;99.90
3053;DHT22;1536;51.098;6.414;2022-10-31T06:49:54;15.10;99.90
3053;DHT22;1536;51.098;6.414;2022-10-31T06:52:22;15.10;99.90
3053;DHT22;1536;51.098;6.414;2022-10-31T06:54:49;15.10;99.90
3053;DHT22;1536;51.098;6.414;2022-10-31T06:57:16;15.10;99.90
3053;DHT22;1536;51.098;6.414;2022-10-31T06:59:43;15.10;99.90
3053;DHT22;1536;51.098;6.414;2022-10-31T07:02:10;15.20;99.90
3053;DHT22;1536;51.098;6.414;2022-10-31T07:04:36;15.20;99.90
3053;DHT22;1536;51.098;6.414;2022-10-31T07:07:03;15.20;99.90
3053;DHT22;1536;51.098;6.414;2022-10-31T07:09:31;15.30;99.90
3053;DHT22;1536;51.098;6.414;2022-10-31T07:11:58;15.30;99.90
3053;DHT22;1536;51.098;6.414;2022-10-31T07:14:25;15.30;99.90
3053;DHT22;1536;51.098;6.414;2022-10-31T07:16:51;15.30;99.90
3053;DHT22;1536;51.098;6.414;2022-10-31T07:19:18;15.30;99.90
3053;DHT22;1536;51.098;6.414;2022-10-31T07:21:45;15.30;99.90
3053;DHT22;1536;51.098;6.414;2022-10-31T07:24:11;15.30;99.90
3053;DHT22;1536;51.098;6.414;2022-10-31T07:26:40;15.30;99.90
3053;DHT22;1536;51.098;6.414;2022-10-31T07:29:07;15.40;99.90
3053;DHT22;1536;51.098;6.414;2022-10-31T07:31:34;15.40;99.90
3053;DHT22;1536;51.098;6.414;2022-10-31T07:34:01;15.50;99.90
3053;DHT22;1536;51.098;6.414;2022-10-31T07:36:27;15.50;99.90
3053;DHT22;1536;51.098;6.414;2022-10-31T07:38:54;15.60;99.90
3053;DHT22;1536;51.098;6.414;2022-10-31T07:41:21;15.60;99.90
3053;DHT22;1536;51.098;6.414;2022-10-31T07:43:49;15.60;99.90
3053;DHT22;1536;51.098;6.414;2022-10-31T07:46:16;15.70;99.90
3053;DHT22;1536;51.098;6.414;2022-10-31T07:48:42;15.70;99.90
3053;DHT22;1536;51.098;6.414;2022-10-31T07:51:09;15.90;99.90
3053;DHT22;1536;51.098;6.414;2022-10-31T07:53:36;15.90;99.90
3053;DHT22;1536;51.098;6.414;2022-10-31T07:56:03;16.00;99.90
3053;DHT22;1536;51.098;6.414;2022-10-31T07:58:29;16.00;99.90
3053;DHT22;1536;51.098;6.414;2022-10-31T08:00:58;16.00;99.90
3053;DHT22;1536;51.098;6.414;2022-10-31T08:03:24;16.00;99.90
3053;DHT22;1536;51.098;6.414;2022-10-31T08:05:51;16.00;99.90
3053;DHT22;1536;51.098;6.414;2022-10-31T08:08:18;16.00;99.90
3053;DHT22;1536;51.098;6.414;2022-10-31T08:10:45;16.10;99.90
3053;DHT22;1536;51.098;6.414;2022-10-31T08:13:13;16.10;99.90
3053;DHT22;1536;51.098;6.414;2022-10-31T08:15:40;16.10;99.90
3053;DHT22;1536;51.098;6.414;2022-10-31T08:18:11;16.10;99.90
3053;DHT22;1536;51.098;6.414;2022-10-31T08:20:39;16.20;99.90
3053;DHT22;1536;51.098;6.414;2022-10-31T08:23:06;16.20;99.90
3053;DHT22;1536;51.098;6.414;2022-10-31T08:25:34;16.20;99.90
3053;DHT22;1536;51.098;6.414;2022-10-31T08:28:00;16.20;99.90
3053;DHT22;1536;51.098;6.414;2022-10-31T08:30:29;16.20;99.90
3053;DHT22;1536;51.098;6.414;2022-10-31T08:33:01;16.20;99.90
3053;DHT22;1536;51.098;6.414;2022-10-31T08:35:30;16.20;99.90
3053;DHT22;1536;51.098;6.414;2022-10-31T08:37:57;16.30;99.90
3053;DHT22;1536;51.098;6.414;2022-10-31T08:40:25;16.30;99.90
3053;DHT22;1536;51.098;6.414;2022-10-31T08:42:56;16.30;99.90
3053;DHT22;1536;51.098;6.414;2022-10-31T08:45:23;16.30;99.90
3053;DHT22;1536;51.098;6.414;2022-10-31T08:47:50;16.30;99.90
3053;DHT22;1536;51.098;6.414;2022-10-31T08:50:17;16.40;99.90
3053;DHT22;1536;51.098;6.414;2022-10-31T08:52:45;16.40;99.90
3053;DHT22;1536;51.098;6.414;2022-10-31T08:55:12;16.40;99.90
3053;DHT22;1536;51.098;6.414;2022-10-31T08:57:39;16.40;99.90
3053;DHT22;1536;51.098;6.414;2022-10-31T09:00:07;16.50;99.90
3053;DHT22;1536;51.098;6.414;2022-10-31T09:02:34;16.50;99.90
3053;DHT22;1536;51.098;6.414;2022-10-31T09:05:02;16.50;99.90
3053;DHT22;1536;51.098;6.414;2022-10-31T09:07:29;16.50;99.90
3053;DHT22;1536;51.098;6.414;2022-10-31T09:09:57;16.50;99.90
3053;DHT22;1536;51.098;6.414;2022-10-31T09:12:24;16.60;99.90
3053;DHT22;1536;51.098;6.414;2022-10-31T09:14:51;16.60;99.90
3053;DHT22;1536;51.098;6.414;2022-10-31T09:17:17;16.60;99.90
3053;DHT22;1536;51.098;6.414;2022-10-31T09:19:45;16.70;99.90
3053;DHT22;1536;51.098;6.414;2022-10-31T09:22:12;16.70;99.90
3053;DHT22;1536;51.098;6.414;2022-10-31T09:24:39;16.70;99.90
3053;DHT22;1536;51.098;6.414;2022-10-31T09:27:07;16.80;99.90
3053;DHT22;1536;51.098;6.414;2022-10-31T09:29:34;16.80;99.90
3053;DHT22;1536;51.098;6.414;2022-10-31T09:32:01;16.90;99.90
3053;DHT22;1536;51.098;6.414;2022-10-31T09:34:28;17.00;99.90
3053;DHT22;1536;51.098;6.414;2022-10-31T09:36:54;17.00;99.90
3053;DHT22;1536;51.098;6.414;2022-10-31T09:39:21;17.00;99.90
3053;DHT22;1536;51.098;6.414;2022-10-31T09:42:00;17.10;99.90
3053;DHT22;1536;51.098;6.414;2022-10-31T09:44:38;17.10;99.90
3053;DHT22;1536;51.098;6.414;2022-10-31T09:47:16;17.10;99.90
3053;DHT22;1536;51.098;6.414;2022-10-31T09:49:56;17.20;99.90
3053;DHT22;1536;51.098;6.414;2022-10-31T09:52:29;17.20;99.90
3053;DHT22;1536;51.098;6.414;2022-10-31T09:55:00;17.30;99.90
3053;DHT22;1536;51.098;6.414;2022-10-31T09:57:32;17.30;99.90
3053;DHT22;1536;51.098;6.414;2022-10-31T10:00:03;17.30;99.90
3053;DHT22;1536;51.098;6.414;2022-10-31T10:02:34;17.40;99.90
3053;DHT22;1536;51.098;6.414;2022-10-31T10:05:05;17.40;99.90
3053;DHT22;1536;51.098;6.414;2022-10-31T10:07:40;17.50;99.90
3053;DHT22;1536;51.098;6.414;2022-10-31T10:10:14;17.50;99.90
3053;DHT22;1536;51.098;6.414;2022-10-31T10:12:51;17.50;99.90
3053;DHT22;1536;51.098;6.414;2022-10-31T10:15:39;17.60;99.90
3053;DHT22;1536;51.098;6.414;2022-10-31T10:18:16;17.60;99.90
3053;DHT22;1536;51.098;6.414;2022-10-31T10:20:56;17.60;99.90
3053;DHT22;1536;51.098;6.414;2022-10-31T10:23:36;17.70;99.90
3053;DHT22;1536;51.098;6.414;2022-10-31T10:26:13;17.70;99.90
3053;DHT22;1536;51.098;6.414;2022-10-31T10:28:44;17.70;99.90
3053;DHT22;1536;51.098;6.414;2022-10-31T10:31:15;17.80;99.90
3053;DHT22;1536;51.098;6.414;2022-10-31T10:33:54;17.80;99.90
3053;DHT22;1536;51.098;6.414;2022-10-31T10:36:26;17.90;99.90
3053;DHT22;1536;51.098;6.414;2022-10-31T10:38:57;17.90;99.90
3053;DHT22;1536;51.098;6.414;2022-10-31T10:41:30;17.90;99.90
3053;DHT22;1536;51.098;6.414;2022-10-31T10:43:57;17.90;99.90
3053;DHT22;1536;51.098;6.414;2022-10-31T10:46:30;17.90;99.90
3053;DHT22;1536;51.098;6.414;2022-10-31T10:49:18;17.90;99.90
3053;DHT22;1536;51.098;6.414;2022-10-31T10:51:47;18.00;99.90
3053;DHT22;1536;51.098;6.414;2022-10-31T10:54:43;18.00;99.90
3053;DHT22;1536;51.098;6.414;2022-10-31T10:57:27;18.00;99.90
3053;DHT22;1536;51.098;6.414;2022-10-31T10:59:59;18.10;99.90
3053;DHT22;1536;51.098;6.414;2022-10-31T11:02:31;18.10;99.90
3053;DHT22;1536;51.098;6.414;2022-10-31T11:05:00;18.10;99.90
3053;DHT22;1536;51.098;6.414;2022-10-31T11:07:37;18.10;99.90
3053;DHT22;1536;51.098;6.414;2022-10-31T11:10:05;18.20;99.90
3053;DHT22;1536;51.098;6.414;2022-10-31T11:12:39;18.20;99.90
3053;DHT22;1536;51.098;6.414;2022-10-31T11:15:15;18.20;99.90
3053;DHT22;1536;51.098;6.414;2022-10-31T11:17:48;18.20;99.90
3053;DHT22;1536;51.098;6.414;2022-10-31T11:20:30;18.30;99.90
3053;DHT22;1536;51.098;6.414;2022-10-31T11:23:03;18.30;99.90
3053;DHT22;1536;51.098;6.414;2022-10-31T11:25:30;18.30;99.90
3053;DHT22;1536;51.098;6.414;2022-10-31T11:28:00;18.30;99.90
3053;DHT22;1536;51.098;6.414;2022-10-31T11:30:28;18.30;99.90
3053;DHT22;1536;51.098;6.414;2022-10-31T11:32:57;18.40;99.90
3053;DHT22;1536;51.098;6.414;2022-10-31T11:35:25;18.40;99.90
3053;DHT22;1536;51.098;6.414;2022-10-31T11:37:53;18.50;99.90
3053;DHT22;1536;51.098;6.414;2022-10-31T11:40:22;18.50;99.90
3053;DHT22;1536;51.098;6.414;2022-10-31T11:42:51;18.60;99.90
3053;DHT22;1536;51.098;6.414;2022-10-31T11:45:28;18.60;99.90
3053;DHT22;1536;51.098;6.414;2022-10-31T11:47:57;18.60;99.90
3053;DHT22;1536;51.098;6.414;2022-10-31T11:50:31;18.70;99.90
3053;DHT22;1536;51.098;6.414;2022-10-31T11:53:00;18.70;99.90
3053;DHT22;1536;51.098;6.414;2022-10-31T11:55:32;18.70;99.90
3053;DHT22;1536;51.098;6.414;2022-10-31T11:58:00;18.80;99.90
3053;DHT22;1536;51.098;6.414;2022-10-31T12:00:28;18.80;99.90
3053;DHT22;1536;51.098;6.414;2022-10-31T12:03:12;18.80;99.90
3053;DHT22;1536;51.098;6.414;2022-10-31T12:05:42;18.80;99.90
3053;DHT22;1536;51.098;6.414;2022-10-31T12:08:12;18.80;99.90
3053;DHT22;1536;51.098;6.414;2022-10-31T12:10:58;18.90;99.90
3053;DHT22;1536;51.098;6.414;2022-10-31T12:13:32;18.90;99.90
3053;DHT22;1536;51.098;6.414;2022-10-31T12:16:06;18.90;99.90
3053;DHT22;1536;51.098;6.414;2022-10-31T12:18:49;18.90;99.90
3053;DHT22;1536;51.098;6.414;2022-10-31T12:21:33;19.00;99.90
3053;DHT22;1536;51.098;6.414;2022-10-31T12:24:10;19.00;99.90
3053;DHT22;1536;51.098;6.414;2022-10-31T12:26:43;19.00;99.90
3053;DHT22;1536;51.098;6.414;2022-10-31T12:29:29;19.00;99.90
3053;DHT22;1536;51.098;6.414;2022-10-31T12:32:13;19.00;99.90
3053;DHT22;1536;51.098;6.414;2022-10-31T12:34:55;19.00;99.90
3053;DHT22;1536;51.098;6.414;2022-10-31T12:37:40;19.00;99.90
3053;DHT22;1536;51.098;6.414;2022-10-31T12:40:24;19.00;99.90
3053;DHT22;1536;51.098;6.414;2022-10-31T12:43:04;19.10;99.90
3053;DHT22;1536;51.098;6.414;2022-10-31T12:45:43;19.10;99.90
3053;DHT22;1536;51.098;6.414;2022-10-31T12:48:42;19.10;99.90
3053;DHT22;1536;51.098;6.414;2022-10-31T12:51:17;19.10;99.90
3053;DHT22;1536;51.098;6.414;2022-10-31T12:54:08;19.10;99.90
3053;DHT22;1536;51.098;6.414;2022-10-31T12:56:45;19.10;99.90
3053;DHT22;1536;51.098;6.414;2022-10-31T12:59:18;19.10;99.90
3053;DHT22;1536;51.098;6.414;2022-10-31T13:01:50;19.10;99.90
3053;DHT22;1536;51.098;6.414;2022-10-31T13:04:30;19.10;99.90
3053;DHT22;1536;51.098;6.414;2022-10-31T13:07:04;19.10;99.90
3053;DHT22;1536;51.098;6.414;2022-10-31T13:09:37;19.10;99.90
3053;DHT22;1536;51.098;6.414;2022-10-31T13:12:08;19.10;99.90
3053;DHT22;1536;51.098;6.414;2022-10-31T13:14:39;19.10;99.90
3053;DHT22;1536;51.098;6.414;2022-10-31T13:17:13;19.10;99.90
3053;DHT22;1536;51.098;6.414;2022-10-31T13:19:43;19.10;99.90
3053;DHT22;1536;51.098;6.414;2022-10-31T13:22:15;19.10;99.90
3053;DHT22;1536;51.098;6.414;2022-10-31T13:24:46;19.10;99.90
3053;DHT22;1536;51.098;6.414;2022-10-31T13:27:21;19.20;99.90
3053;DHT22;1536;51.098;6.414;2022-10-31T13:29:57;19.20;99.90
3053;DHT22;1536;51.098;6.414;2022-10-31T13:32:26;19.20;99.90
3053;DHT22;1536;51.098;6.414;2022-10-31T13:34:56;19.20;99.90
3053;DHT22;1536;51.098;6.414;2022-10-31T13:37:34;19.20;99.90
3053;DHT22;1536;51.098;6.414;2022-10-31T13:40:12;19.20;99.90
3053;DHT22;1536;51.098;6.414;2022-10-31T13:42:51;19.20;99.90
3053;DHT22;1536;51.098;6.414;2022-10-31T13:45:21;19.20;99.90
3053;DHT22;1536;51.098;6.414;2022-10-31T13:47:56;19.20;99.90
3053;DHT22;1536;51.098;6.414;2022-10-31T13:50:25;19.20;99.90
3053;DHT22;1536;51.098;6.414;2022-10-31T13:53:09;19.20;99.90
3053;DHT22;1536;51.098;6.414;2022-10-31T13:55:38;19.10;99.90
3053;DHT22;1536;51.098;6.414;2022-10-31T13:58:21;19.20;99.90
3053;DHT22;1536;51.098;6.414;2022-10-31T14:01:04;19.10;99.90
3053;DHT22;1536;51.098;6.414;2022-10-31T14:03:33;19.10;99.90
3053;DHT22;1536;51.098;6.414;2022-10-31T14:06:02;19.10;99.90
3053;DHT22;1536;51.098;6.414;2022-10-31T14:08:34;19.10;99.90
3053;DHT22;1536;51.098;6.414;2022-10-31T14:11:01;19.10;99.90
3053;DHT22;1536;51.098;6.414;2022-10-31T14:13:32;19.10;99.90
3053;DHT22;1536;51.098;6.414;2022-10-31T14:16:04;19.10;99.90
3053;DHT22;1536;51.098;6.414;2022-10-31T14:18:34;19.10;99.90
3053;DHT22;1536;51.098;6.414;2022-10-31T14:21:14;19.10;99.90
3053;DHT22;1536;51.098;6.414;2022-10-31T14:23:42;19.10;99.90
3053;DHT22;1536;51.098;6.414;2022-10-31T14:26:35;19.10;99.90
3053;DHT22;1536;51.098;6.414;2022-10-31T14:29:21;19.10;99.90
3053;DHT22;1536;51.098;6.414;2022-10-31T14:31:58;19.10;99.90
3053;DHT22;1536;51.098;6.414;2022-10-31T14:34:28;19.10;99.90
3053;DHT22;1536;51.098;6.414;2022-10-31T14:37:32;19.10;99.90
3053;DHT22;1536;51.098;6.414;2022-10-31T14:40:17;19.10;99.90
3053;DHT22;1536;51.098;6.414;2022-10-31T14:45:58;19.10;99.90
3053;DHT22;1536;51.098;6.414;2022-10-31T14:48:39;19.10;99.90
3053;DHT22;1536;51.098;6.414;2022-10-31T14:51:12;19.10;99.90
3053;DHT22;1536;51.098;6.414;2022-10-31T14:53:45;19.10;99.90
3053;DHT22;1536;51.098;6.414;2022-10-31T14:56:19;19.10;99.90
3053;DHT22;1536;51.098;6.414;2022-10-31T14:58:47;19.20;99.90
3053;DHT22;1536;51.098;6.414;2022-10-31T15:01:22;19.20;99.90
3053;DHT22;1536;51.098;6.414;2022-10-31T15:03:49;19.20;99.90
3053;DHT22;1536;51.098;6.414;2022-10-31T15:06:19;19.20;99.90
3053;DHT22;1536;51.098;6.414;2022-10-31T15:08:48;19.20;99.90
3053;DHT22;1536;51.098;6.414;2022-10-31T15:11:18;19.20;99.90
3053;DHT22;1536;51.098;6.414;2022-10-31T15:13:47;19.20;99.90
3053;DHT22;1536;51.098;6.414;2022-10-31T15:16:15;19.20;99.90
3053;DHT22;1536;51.098;6.414;2022-10-31T15:18:52;19.20;99.90
3053;DHT22;1536;51.098;6.414;2022-10-31T15:21:21;19.20;99.90
3053;DHT22;1536;51.098;6.414;2022-10-31T15:23:49;19.20;99.90
3053;DHT22;1536;51.098;6.414;2022-10-31T15:26:21;19.20;99.90
3053;DHT22;1536;51.098;6.414;2022-10-31T15:28:58;19.20;99.90
3053;DHT22;1536;51.098;6.414;2022-10-31T15:31:26;19.20;99.90
3053;DHT22;1536;51.098;6.414;2022-10-31T15:33:53;19.10;99.90
3053;DHT22;1536;51.098;6.414;2022-10-31T15:36:24;19.10;99.90
3053;DHT22;1536;51.098;6.414;2022-10-31T15:38:51;19.10;99.90
3053;DHT22;1536;51.098;6.414;2022-10-31T15:41:31;19.10;99.90
3053;DHT22;1536;51.098;6.414;2022-10-31T15:44:03;19.00;99.90
3053;DHT22;1536;51.098;6.414;2022-10-31T15:46:31;19.00;99.90
3053;DHT22;1536;51.098;6.414;2022-10-31T15:48:59;19.00;99.90
3053;DHT22;1536;51.098;6.414;2022-10-31T15:51:28;19.00;99.90
3053;DHT22;1536;51.098;6.414;2022-10-31T15:53:56;19.00;99.90
3053;DHT22;1536;51.098;6.414;2022-10-31T15:56:29;18.90;99.90
3053;DHT22;1536;51.098;6.414;2022-10-31T15:58:58;18.90;99.90
3053;DHT22;1536;51.098;6.414;2022-10-31T16:01:27;18.90;99.90
3053;DHT22;1536;51.098;6.414;2022-10-31T16:04:03;18.80;99.90
3053;DHT22;1536;51.098;6.414;2022-10-31T16:06:32;18.80;99.90
3053;DHT22;1536;51.098;6.414;2022-10-31T16:08:59;18.80;99.90
3053;DHT22;1536;51.098;6.414;2022-10-31T16:11:33;18.80;99.90
3053;DHT22;1536;51.098;6.414;2022-10-31T16:14:03;18.70;99.90
3053;DHT22;1536;51.098;6.414;2022-10-31T16:16:32;18.70;99.90
3053;DHT22;1536;51.098;6.414;2022-10-31T16:19:00;18.70;99.90
3053;DHT22;1536;51.098;6.414;2022-10-31T16:21:31;18.60;99.90
3053;DHT22;1536;51.098;6.414;2022-10-31T16:24:00;18.60;99.90
3053;DHT22;1536;51.098;6.414;2022-10-31T16:26:29;18.60;99.90
3053;DHT22;1536;51.098;6.414;2022-10-31T16:28:57;18.50;99.90
3053;DHT22;1536;51.098;6.414;2022-10-31T16:31:30;18.50;99.90